Time;durP1;ratioP1;P1;durP2;ratioP2;P2;SDS_P1;SDS_P2;PMS_P1;PMS_P2;Temp;Humidity;BMP_temperature;BMP_pressure;BME280_temperature;BME280_humidity;BME280_pressure;Samples;Min_cycle;Max_cycle;Signal;HPM_P1;HPM_P2
2023/01/30 00:01:28;;;;;;;48.08;26.60;;;;;;;;;;5047445;28;20040;-75
2023/01/30 00:03:54;;;;;;;46.63;24.83;;;;;;;;;;5048200;28;20041;-75
2023/01/30 00:06:20;;;;;;;47.28;26.75;;;;;;;;;;5066343;28;20082;-75
2023/01/30 00:08:46;;;;;;;43.95;25.38;;;;;;;;;;5037267;28;20034;-75
2023/01/30 00:11:14;;;;;;;58.35;26.50;;;;;;;;;;5031733;28;20385;-75
2023/01/30 00:13:40;;;;;;;44.20;24.17;;;;;;;;;;5054825;28;20037;-75
2023/01/30 00:16:08;;;;;;;47.88;26.20;;;;;;;;;;5054278;28;20478;-75
2023/01/30 00:18:34;;;;;;;45.70;26.73;;;;;;;;;;5045956;28;20051;-76
2023/01/30 00:21:02;;;;;;;42.90;24.70;;;;;;;;;;5056280;28;20024;-75
2023/01/30 00:23:28;;;;;;;44.40;24.90;;;;;;;;;;5051548;28;20053;-75
2023/01/30 00:25:54;;;;;;;48.63;25.83;;;;;;;;;;5048988;28;20033;-75
2023/01/30 00:28:20;;;;;;;49.53;25.45;;;;;;;;;;5044336;28;20041;-75
2023/01/30 00:30:50;;;;;;;43.38;24.15;;;;;;;;;;5047880;28;20025;-75
2023/01/30 00:33:16;;;;;;;43.33;24.30;;;;;;;;;;5046102;28;20056;-75
2023/01/30 00:35:43;;;;;;;42.30;23.20;;;;;;;;;;5062028;28;20466;-75
2023/01/30 00:38:09;;;;;;;43.08;21.63;;;;;;;;;;5043898;28;20553;-75
2023/01/30 00:40:35;;;;;;;47.00;24.65;;;;;;;;;;5040403;28;20108;-75
2023/01/30 00:48:32;;;;;;;48.17;26.90;;;;;;;;;;5032123;28;20044;-75
2023/01/30 00:50:58;;;;;;;42.03;24.45;;;;;;;;;;5032158;28;20034;-75
2023/01/30 00:53:24;;;;;;;41.80;23.63;;;;;;;;;;5039632;28;20037;-75
2023/01/30 00:55:51;;;;;;;45.65;25.10;;;;;;;;;;5031324;28;20029;-75
2023/01/30 00:58:17;;;;;;;53.55;27.42;;;;;;;;;;5056772;28;20116;-75
2023/01/30 01:00:43;;;;;;;81.50;33.15;;;;;;;;;;5050827;28;20083;-75
2023/01/30 01:03:09;;;;;;;121.97;43.85;;;;;;;;;;5049174;28;20045;-76
2023/01/30 01:05:35;;;;;;;112.25;41.60;;;;;;;;;;5040831;28;20060;-75
2023/01/30 01:08:01;;;;;;;95.35;36.15;;;;;;;;;;5052251;28;20029;-75
2023/01/30 01:10:27;;;;;;;100.35;40.15;;;;;;;;;;5050233;28;20440;-75
2023/01/30 01:12:53;;;;;;;114.75;43.08;;;;;;;;;;5050141;28;20039;-75
2023/01/30 01:15:20;;;;;;;99.35;41.65;;;;;;;;;;5051294;28;20055;-76
2023/01/30 01:17:46;;;;;;;71.50;32.97;;;;;;;;;;5041640;28;20481;-75
2023/01/30 01:20:12;;;;;;;63.58;29.80;;;;;;;;;;5041273;28;20037;-75
2023/01/30 01:22:38;;;;;;;55.28;26.92;;;;;;;;;;5050734;28;20057;-75
2023/01/30 01:25:05;;;;;;;53.28;27.58;;;;;;;;;;5050875;28;20037;-75
2023/01/30 01:27:31;;;;;;;55.83;28.50;;;;;;;;;;5050758;28;20041;-75
2023/01/30 01:29:57;;;;;;;52.42;30.45;;;;;;;;;;5050212;28;20560;-76
2023/01/30 01:32:23;;;;;;;49.70;27.17;;;;;;;;;;5051959;28;20036;-75
2023/01/30 01:34:49;;;;;;;49.20;29.35;;;;;;;;;;5040823;28;20175;-75
2023/01/30 01:37:15;;;;;;;49.13;25.27;;;;;;;;;;5041138;28;20143;-75
2023/01/30 01:42:28;;;;;;;44.58;23.90;;;;;;;;;;5048452;28;20477;-75
2023/01/30 01:45:13;;;;;;;42.75;23.77;;;;;;;;;;5058973;28;20104;-75
2023/01/30 01:47:45;;;;;;;44.80;25.33;;;;;;;;;;5037972;28;20029;-75
2023/01/30 01:50:16;;;;;;;39.90;22.25;;;;;;;;;;5037269;28;20047;-75
2023/01/30 01:52:43;;;;;;;32.75;18.40;;;;;;;;;;5048026;28;20429;-75
2023/01/30 01:55:09;;;;;;;36.10;19.33;;;;;;;;;;5045406;28;20029;-75
2023/01/30 01:57:48;;;;;;;34.53;19.20;;;;;;;;;;5041449;28;20037;-75
2023/01/30 02:00:19;;;;;;;32.88;17.58;;;;;;;;;;5035132;28;20116;-75
2023/01/30 02:02:57;;;;;;;29.73;16.90;;;;;;;;;;5049600;28;20040;-75
2023/01/30 02:05:25;;;;;;;32.25;17.92;;;;;;;;;;5043356;28;20116;-75
2023/01/30 02:07:55;;;;;;;31.90;17.63;;;;;;;;;;5054357;28;20037;-75
2023/01/30 02:10:22;;;;;;;33.75;18.08;;;;;;;;;;5041875;28;20033;-75
2023/01/30 02:12:49;;;;;;;36.42;18.90;;;;;;;;;;5032070;28;20490;-75
2023/01/30 02:15:16;;;;;;;33.42;18.23;;;;;;;;;;5047358;28;20032;-75
2023/01/30 02:17:42;;;;;;;29.75;17.75;;;;;;;;;;5055897;28;20029;-75
2023/01/30 02:20:27;;;;;;;27.80;15.38;;;;;;;;;;5044605;28;20374;-75
2023/01/30 02:23:11;;;;;;;30.70;16.70;;;;;;;;;;5031478;28;20058;-75
2023/01/30 02:25:52;;;;;;;33.13;17.90;;;;;;;;;;5041282;28;20067;-75
2023/01/30 02:28:21;;;;;;;29.38;16.25;;;;;;;;;;5048467;28;20037;-75
2023/01/30 02:30:51;;;;;;;27.17;15.35;;;;;;;;;;5047043;28;20025;-75
2023/01/30 02:33:22;;;;;;;29.60;15.45;;;;;;;;;;5051391;28;20132;-75
2023/01/30 02:35:51;;;;;;;25.83;14.65;;;;;;;;;;5041427;28;20029;-75
2023/01/30 02:38:24;;;;;;;25.65;14.70;;;;;;;;;;5038120;28;20452;-75
2023/01/30 02:40:56;;;;;;;30.35;16.45;;;;;;;;;;5041417;28;20055;-75
2023/01/30 02:43:25;;;;;;;31.30;16.45;;;;;;;;;;5049758;28;20039;-75
2023/01/30 02:46:13;;;;;;;32.92;17.88;;;;;;;;;;5046525;28;20552;-75
2023/01/30 02:48:43;;;;;;;34.28;17.83;;;;;;;;;;5038679;28;20033;-75
2023/01/30 02:51:12;;;;;;;37.35;20.33;;;;;;;;;;5039700;28;20112;-75
2023/01/30 02:53:38;;;;;;;34.15;20.42;;;;;;;;;;5061068;28;20033;-75
2023/01/30 02:56:04;;;;;;;33.28;18.00;;;;;;;;;;5045313;28;20026;-75
2023/01/30 02:58:31;;;;;;;33.15;18.05;;;;;;;;;;5043714;28;20087;-75
2023/01/30 03:01:02;;;;;;;37.38;21.45;;;;;;;;;;5048888;28;20068;-75
2023/01/30 03:03:31;;;;;;;33.65;17.52;;;;;;;;;;5047815;28;20036;-75
2023/01/30 03:06:06;;;;;;;35.60;18.92;;;;;;;;;;5039630;28;20159;-75
2023/01/30 03:08:39;;;;;;;39.05;21.10;;;;;;;;;;5030536;28;20037;-75
2023/01/30 03:11:07;;;;;;;41.58;22.52;;;;;;;;;;5042284;28;20029;-75
2023/01/30 03:13:48;;;;;;;41.42;21.17;;;;;;;;;;5048308;28;20029;-75
2023/01/30 03:16:19;;;;;;;33.42;18.90;;;;;;;;;;5045831;28;20074;-75
2023/01/30 03:18:45;;;;;;;34.67;19.90;;;;;;;;;;5038611;28;20041;-75
2023/01/30 03:21:12;;;;;;;34.58;18.85;;;;;;;;;;5047462;28;20486;-75
2023/01/30 03:23:38;;;;;;;33.67;18.73;;;;;;;;;;5060131;28;20406;-75
2023/01/30 03:26:05;;;;;;;34.28;18.95;;;;;;;;;;5046281;28;20033;-75
2023/01/30 03:28:32;;;;;;;36.10;18.58;;;;;;;;;;5048975;28;20088;-75
2023/01/30 03:30:58;;;;;;;35.40;17.88;;;;;;;;;;5046193;28;20079;-75
2023/01/30 03:33:24;;;;;;;42.65;21.25;;;;;;;;;;5048281;28;20107;-75
2023/01/30 03:35:50;;;;;;;37.13;19.40;;;;;;;;;;5046279;28;20162;-75
2023/01/30 03:38:17;;;;;;;35.35;19.35;;;;;;;;;;5045069;28;20033;-75
2023/01/30 03:40:43;;;;;;;34.85;17.42;;;;;;;;;;5052420;28;20037;-75
2023/01/30 03:43:09;;;;;;;37.10;20.02;;;;;;;;;;5058703;28;20033;-75
2023/01/30 03:45:35;;;;;;;37.42;20.48;;;;;;;;;;5046289;28;20029;-75
2023/01/30 03:48:01;;;;;;;44.22;25.55;;;;;;;;;;5056636;28;20037;-75
2023/01/30 03:50:28;;;;;;;41.63;20.75;;;;;;;;;;5060219;28;20619;-75
2023/01/30 03:52:54;;;;;;;48.47;26.17;;;;;;;;;;5049858;28;20040;-75
2023/01/30 03:55:20;;;;;;;45.60;23.90;;;;;;;;;;5059237;28;20039;-75
2023/01/30 03:57:46;;;;;;;46.42;25.77;;;;;;;;;;5049579;28;20033;-75
2023/01/30 04:00:12;;;;;;;43.08;21.90;;;;;;;;;;5054327;28;20086;-75
2023/01/30 04:02:38;;;;;;;49.20;23.83;;;;;;;;;;5061861;28;20037;-75
2023/01/30 04:05:05;;;;;;;45.22;23.27;;;;;;;;;;5061140;28;20048;-76
2023/01/30 04:07:31;;;;;;;48.42;21.63;;;;;;;;;;5051926;28;20470;-75
2023/01/30 04:09:57;;;;;;;48.35;24.30;;;;;;;;;;5062280;28;20033;-76
2023/01/30 04:12:23;;;;;;;42.97;21.17;;;;;;;;;;5049969;28;20040;-75
2023/01/30 04:14:49;;;;;;;40.03;21.30;;;;;;;;;;5050401;28;20565;-76
2023/01/30 04:17:15;;;;;;;57.58;27.15;;;;;;;;;;5051480;28;20074;-75
2023/01/30 04:19:41;;;;;;;47.92;23.55;;;;;;;;;;5045760;28;20040;-75
2023/01/30 04:22:07;;;;;;;39.13;19.63;;;;;;;;;;5051883;28;20171;-75
2023/01/30 04:24:33;;;;;;;36.28;19.50;;;;;;;;;;5035854;28;20033;-75
2023/01/30 04:26:59;;;;;;;46.05;23.83;;;;;;;;;;5065295;28;20037;-75
2023/01/30 04:29:25;;;;;;;42.72;22.83;;;;;;;;;;5050568;28;20064;-75
2023/01/30 04:31:51;;;;;;;42.72;21.42;;;;;;;;;;5042010;28;20826;-75
2023/01/30 04:34:17;;;;;;;36.67;20.35;;;;;;;;;;5034666;28;20060;-75
2023/01/30 04:36:43;;;;;;;40.55;21.05;;;;;;;;;;5042949;28;20564;-75
2023/01/30 04:39:09;;;;;;;40.83;21.60;;;;;;;;;;5059337;28;20138;-75
2023/01/30 04:41:35;;;;;;;46.22;24.13;;;;;;;;;;5039727;28;20135;-75
2023/01/30 04:44:01;;;;;;;36.33;19.10;;;;;;;;;;5047036;28;20037;-75
2023/01/30 04:46:27;;;;;;;46.17;22.80;;;;;;;;;;5044139;28;21010;-76
2023/01/30 04:48:53;;;;;;;45.58;23.50;;;;;;;;;;5050802;28;20124;-75
2023/01/30 04:51:19;;;;;;;41.83;22.85;;;;;;;;;;5048990;28;20052;-75
2023/01/30 04:53:45;;;;;;;45.50;24.15;;;;;;;;;;5040240;28;20760;-75
2023/01/30 04:56:11;;;;;;;41.92;22.38;;;;;;;;;;5051129;28;20070;-75
2023/01/30 04:58:37;;;;;;;45.25;25.50;;;;;;;;;;5043969;28;20030;-76
2023/01/30 05:01:18;;;;;;;43.42;22.55;;;;;;;;;;5050755;28;20112;-76
2023/01/30 05:03:44;;;;;;;33.90;18.42;;;;;;;;;;5034210;28;20114;-76
2023/01/30 05:06:10;;;;;;;44.65;24.23;;;;;;;;;;5050723;28;20072;-76
2023/01/30 05:08:36;;;;;;;51.83;26.67;;;;;;;;;;5054053;28;20039;-75
2023/01/30 05:11:02;;;;;;;53.25;28.30;;;;;;;;;;5043209;28;20038;-76
2023/01/30 05:13:28;;;;;;;48.15;26.27;;;;;;;;;;5042978;28;20033;-76
2023/01/30 05:15:54;;;;;;;44.83;24.00;;;;;;;;;;5038766;28;20481;-76
2023/01/30 05:18:20;;;;;;;44.38;23.67;;;;;;;;;;5038004;28;20035;-76
2023/01/30 05:20:46;;;;;;;45.60;22.88;;;;;;;;;;5049256;28;20036;-76
2023/01/30 05:23:12;;;;;;;40.17;23.10;;;;;;;;;;5044536;28;20064;-75
2023/01/30 05:25:38;;;;;;;42.88;24.65;;;;;;;;;;5050874;28;20037;-76
2023/01/30 05:28:04;;;;;;;44.50;24.13;;;;;;;;;;5036271;28;20095;-76
2023/01/30 05:30:30;;;;;;;41.60;23.48;;;;;;;;;;5047584;28;20033;-76
2023/01/30 05:32:57;;;;;;;42.20;21.88;;;;;;;;;;5044477;28;20041;-76
2023/01/30 05:35:23;;;;;;;36.58;22.73;;;;;;;;;;5050629;28;20033;-76
2023/01/30 05:37:50;;;;;;;40.17;22.67;;;;;;;;;;5043274;28;20618;-76
2023/01/30 05:40:16;;;;;;;45.85;22.92;;;;;;;;;;5052686;28;20044;-76
2023/01/30 05:42:42;;;;;;;42.95;23.35;;;;;;;;;;5045082;28;20029;-76
2023/01/30 05:45:08;;;;;;;40.63;22.17;;;;;;;;;;5040894;28;20188;-76
2023/01/30 05:47:34;;;;;;;43.67;23.40;;;;;;;;;;5044253;28;20040;-76
2023/01/30 05:50:00;;;;;;;41.22;22.00;;;;;;;;;;5048342;28;20037;-76
2023/01/30 05:52:26;;;;;;;41.03;21.30;;;;;;;;;;5046458;28;20044;-76
2023/01/30 05:54:52;;;;;;;43.85;23.35;;;;;;;;;;5036362;28;20087;-75
2023/01/30 05:57:18;;;;;;;45.47;23.55;;;;;;;;;;5040724;28;20381;-76
2023/01/30 05:59:44;;;;;;;41.78;22.85;;;;;;;;;;5042668;28;20032;-76
2023/01/30 06:02:10;;;;;;;43.08;21.77;;;;;;;;;;5052911;28;20209;-76
2023/01/30 06:04:36;;;;;;;44.33;25.02;;;;;;;;;;5049940;28;20037;-76
2023/01/30 06:07:02;;;;;;;47.35;23.23;;;;;;;;;;5044534;28;20037;-76
2023/01/30 06:09:28;;;;;;;44.13;24.27;;;;;;;;;;5049171;28;20033;-76
2023/01/30 06:11:54;;;;;;;44.72;24.80;;;;;;;;;;5046739;28;20037;-76
2023/01/30 06:14:20;;;;;;;46.92;24.85;;;;;;;;;;5048236;28;20104;-76
2023/01/30 06:16:46;;;;;;;48.03;25.48;;;;;;;;;;5046114;28;20030;-76
2023/01/30 06:19:12;;;;;;;50.42;25.45;;;;;;;;;;5056552;28;20132;-76
2023/01/30 06:21:38;;;;;;;67.80;32.47;;;;;;;;;;5042710;28;20037;-76
2023/01/30 06:24:04;;;;;;;68.75;34.83;;;;;;;;;;5040244;28;20029;-76
2023/01/30 06:26:30;;;;;;;69.18;33.90;;;;;;;;;;5042618;28;20036;-76
2023/01/30 06:28:56;;;;;;;70.28;32.10;;;;;;;;;;5041552;28;20033;-76
2023/01/30 06:31:22;;;;;;;77.38;36.80;;;;;;;;;;5056623;28;20060;-76
2023/01/30 06:33:48;;;;;;;60.97;30.13;;;;;;;;;;5050106;28;20426;-75
2023/01/30 06:36:14;;;;;;;47.30;24.25;;;;;;;;;;5033146;28;20037;-76
2023/01/30 06:38:40;;;;;;;38.00;21.42;;;;;;;;;;5052867;28;20037;-76
2023/01/30 06:41:06;;;;;;;47.10;24.85;;;;;;;;;;5043116;28;20469;-76
2023/01/30 06:43:32;;;;;;;47.50;23.98;;;;;;;;;;5044783;28;20255;-76
2023/01/30 06:45:59;;;;;;;42.22;23.10;;;;;;;;;;5046057;28;20534;-75
2023/01/30 06:48:25;;;;;;;44.80;23.13;;;;;;;;;;5047801;28;20033;-75
2023/01/30 06:50:51;;;;;;;43.47;21.15;;;;;;;;;;5040982;28;20078;-75
2023/01/30 06:53:17;;;;;;;45.53;22.42;;;;;;;;;;5046338;28;20385;-75
2023/01/30 06:55:43;;;;;;;42.83;21.75;;;;;;;;;;5046208;28;20033;-76
2023/01/30 06:58:10;;;;;;;41.88;22.27;;;;;;;;;;5050848;28;20033;-75
2023/01/30 07:00:38;;;;;;;53.47;28.58;;;;;;;;;;5047535;28;20028;-75
2023/01/30 07:03:05;;;;;;;49.70;24.63;;;;;;;;;;5040926;28;20037;-75
2023/01/30 07:05:31;;;;;;;50.63;25.88;;;;;;;;;;5046295;28;20024;-76
2023/01/30 07:07:57;;;;;;;43.53;23.27;;;;;;;;;;5045387;28;20181;-75
2023/01/30 07:10:25;;;;;;;43.38;24.70;;;;;;;;;;5047366;28;20047;-75
2023/01/30 07:12:52;;;;;;;37.45;21.10;;;;;;;;;;5049184;28;20029;-75
2023/01/30 07:15:18;;;;;;;45.22;23.95;;;;;;;;;;5041368;28;20025;-76
2023/01/30 07:17:44;;;;;;;44.17;24.67;;;;;;;;;;5044507;28;20920;-76
2023/01/30 07:20:10;;;;;;;55.55;30.33;;;;;;;;;;5045714;28;20475;-76
2023/01/30 07:22:36;;;;;;;55.97;31.13;;;;;;;;;;5046902;28;20088;-76
2023/01/30 07:25:02;;;;;;;62.08;33.20;;;;;;;;;;5045605;28;20024;-76
2023/01/30 07:27:28;;;;;;;56.90;31.08;;;;;;;;;;5047220;28;20052;-76
2023/01/30 07:29:54;;;;;;;45.28;26.38;;;;;;;;;;5046139;28;20033;-76
2023/01/30 07:32:21;;;;;;;46.97;27.05;;;;;;;;;;5045203;28;20107;-76
2023/01/30 07:34:47;;;;;;;52.95;29.13;;;;;;;;;;5042301;28;20037;-76
2023/01/30 07:37:13;;;;;;;49.92;26.15;;;;;;;;;;5040065;28;20115;-76
2023/01/30 07:39:39;;;;;;;52.38;27.58;;;;;;;;;;5054375;28;20051;-76
2023/01/30 07:42:05;;;;;;;47.47;26.05;;;;;;;;;;5044580;28;20029;-76
2023/01/30 07:44:32;;;;;;;48.30;26.00;;;;;;;;;;5042157;28;20143;-76
2023/01/30 07:46:59;;;;;;;51.35;28.65;;;;;;;;;;5041485;28;20036;-76
2023/01/30 07:49:25;;;;;;;60.10;31.45;;;;;;;;;;5044417;28;20051;-76
2023/01/30 07:51:51;;;;;;;59.65;32.00;;;;;;;;;;5053830;28;20037;-76
2023/01/30 07:54:17;;;;;;;55.45;30.60;;;;;;;;;;5046381;28;20911;-76
2023/01/30 07:56:44;;;;;;;48.30;27.23;;;;;;;;;;5045777;28;20029;-76
2023/01/30 07:59:10;;;;;;;39.10;21.38;;;;;;;;;;5048135;28;20040;-76
2023/01/30 08:01:36;;;;;;;44.50;23.17;;;;;;;;;;5045384;28;20044;-76
2023/01/30 08:04:02;;;;;;;38.47;20.33;;;;;;;;;;5048159;28;20032;-76
2023/01/30 08:06:28;;;;;;;41.90;21.25;;;;;;;;;;5047976;28;20056;-76
2023/01/30 08:08:54;;;;;;;50.55;27.25;;;;;;;;;;5046066;28;20120;-76
2023/01/30 08:11:20;;;;;;;48.90;28.17;;;;;;;;;;5047263;28;20116;-76
2023/01/30 08:13:46;;;;;;;53.40;28.75;;;;;;;;;;5046536;28;20028;-76
2023/01/30 08:16:12;;;;;;;51.40;29.60;;;;;;;;;;5048756;28;20037;-76
2023/01/30 08:18:38;;;;;;;49.75;24.50;;;;;;;;;;5045040;28;20037;-76
2023/01/30 08:21:05;;;;;;;41.90;21.23;;;;;;;;;;5046531;28;20381;-76
2023/01/30 08:23:32;;;;;;;48.30;23.48;;;;;;;;;;5046324;28;20049;-76
2023/01/30 08:25:59;;;;;;;49.95;25.60;;;;;;;;;;5043782;28;20044;-76
2023/01/30 08:28:26;;;;;;;50.03;26.00;;;;;;;;;;5040751;28;20033;-76
2023/01/30 08:30:56;;;;;;;50.85;26.77;;;;;;;;;;5058028;28;20064;-76
2023/01/30 08:33:23;;;;;;;47.53;23.70;;;;;;;;;;5047426;28;20033;-76
2023/01/30 08:35:49;;;;;;;53.03;26.70;;;;;;;;;;5045872;28;20032;-76
2023/01/30 08:38:15;;;;;;;64.70;35.70;;;;;;;;;;5052984;28;20040;-76
2023/01/30 08:40:41;;;;;;;49.97;27.60;;;;;;;;;;5040930;28;20030;-76
2023/01/30 08:43:07;;;;;;;50.78;28.42;;;;;;;;;;5050695;28;20124;-76
2023/01/30 08:45:33;;;;;;;45.67;27.42;;;;;;;;;;5046281;28;20038;-76
2023/01/30 08:48:00;;;;;;;47.50;27.17;;;;;;;;;;5040940;28;20493;-76
2023/01/30 08:50:26;;;;;;;41.40;23.92;;;;;;;;;;5048787;28;20698;-76
2023/01/30 08:52:52;;;;;;;36.42;20.02;;;;;;;;;;5047913;28;20037;-76
2023/01/30 08:55:18;;;;;;;45.00;25.70;;;;;;;;;;5044163;28;20025;-76
2023/01/30 08:57:44;;;;;;;60.05;34.05;;;;;;;;;;5055575;28;20375;-76
2023/01/30 09:00:11;;;;;;;57.28;32.53;;;;;;;;;;5057792;28;20037;-76
2023/01/30 09:02:37;;;;;;;54.38;31.52;;;;;;;;;;5049173;28;20045;-76
2023/01/30 09:05:04;;;;;;;49.85;28.00;;;;;;;;;;5047617;28;20052;-76
2023/01/30 09:07:30;;;;;;;50.67;28.42;;;;;;;;;;5047188;28;20364;-76
2023/01/30 09:09:56;;;;;;;51.30;26.63;;;;;;;;;;5050458;28;20024;-76
2023/01/30 09:12:22;;;;;;;48.80;24.50;;;;;;;;;;5049234;28;20041;-76
2023/01/30 09:14:48;;;;;;;44.20;24.30;;;;;;;;;;5054683;28;20032;-76
2023/01/30 09:17:14;;;;;;;50.90;26.77;;;;;;;;;;5045186;28;20040;-76
2023/01/30 09:19:40;;;;;;;53.35;28.63;;;;;;;;;;5044424;28;20028;-76
2023/01/30 09:22:06;;;;;;;49.15;28.08;;;;;;;;;;5043372;28;20057;-76
2023/01/30 09:24:33;;;;;;;47.97;29.17;;;;;;;;;;5041835;28;20866;-76
2023/01/30 09:26:59;;;;;;;47.13;26.20;;;;;;;;;;5045168;28;20056;-76
2023/01/30 09:29:25;;;;;;;43.45;23.75;;;;;;;;;;5047534;28;20377;-76
2023/01/30 09:31:51;;;;;;;41.53;20.83;;;;;;;;;;5044177;28;20511;-76
2023/01/30 09:34:17;;;;;;;37.13;20.98;;;;;;;;;;5056576;28;20057;-76
2023/01/30 09:36:43;;;;;;;37.47;20.98;;;;;;;;;;5045925;28;20072;-76
2023/01/30 09:39:09;;;;;;;32.72;18.45;;;;;;;;;;5048958;28;20763;-76
2023/01/30 09:41:57;;;;;;;29.85;17.67;;;;;;;;;;5047748;28;20120;-76
2023/01/30 09:44:31;;;;;;;35.25;20.45;;;;;;;;;;5045644;28;20036;-76
2023/01/30 09:47:02;;;;;;;36.90;19.38;;;;;;;;;;5043222;28;20693;-76
2023/01/30 09:49:31;;;;;;;34.63;17.98;;;;;;;;;;5049395;28;20560;-75
2023/01/30 09:52:24;;;;;;;41.42;19.70;;;;;;;;;;5050700;28;20672;-75
2023/01/30 09:54:51;;;;;;;45.20;22.95;;;;;;;;;;5026945;28;20072;-75
2023/01/30 09:57:20;;;;;;;74.43;41.20;;;;;;;;;;5046865;28;20123;-75
2023/01/30 10:00:09;;;;;;;85.25;46.20;;;;;;;;;;5051090;28;20074;-75
2023/01/30 10:02:35;;;;;;;64.43;38.20;;;;;;;;;;5052862;28;20037;-75
2023/01/30 10:05:02;;;;;;;55.95;31.55;;;;;;;;;;5042272;28;20037;-75
2023/01/30 10:07:41;;;;;;;50.70;28.70;;;;;;;;;;5043869;28;20390;-76
2023/01/30 10:10:17;;;;;;;46.22;24.65;;;;;;;;;;5052392;28;20047;-76
2023/01/30 10:12:49;;;;;;;35.95;21.15;;;;;;;;;;5048313;28;20032;-75
2023/01/30 10:15:41;;;;;;;31.08;16.35;;;;;;;;;;5049297;28;20478;-76
2023/01/30 10:18:10;;;;;;;33.33;19.55;;;;;;;;;;5045764;28;20049;-75
2023/01/30 10:20:42;;;;;;;35.10;20.10;;;;;;;;;;5043516;28;20108;-75
2023/01/30 10:23:11;;;;;;;38.28;21.92;;;;;;;;;;5044651;28;20739;-75
2023/01/30 10:25:46;;;;;;;37.78;19.45;;;;;;;;;;5047347;28;20036;-75
2023/01/30 10:28:15;;;;;;;44.45;21.67;;;;;;;;;;5048287;28;20041;-75
2023/01/30 10:30:43;;;;;;;42.20;22.05;;;;;;;;;;5044481;28;20112;-75
2023/01/30 10:33:20;;;;;;;39.92;21.52;;;;;;;;;;5043163;28;20037;-75
2023/01/30 10:35:57;;;;;;;40.72;22.65;;;;;;;;;;5038608;28;20466;-75
2023/01/30 10:38:26;;;;;;;38.10;20.55;;;;;;;;;;5051946;28;20032;-75
2023/01/30 10:40:57;;;;;;;33.35;20.08;;;;;;;;;;5050654;28;20686;-75
2023/01/30 10:43:42;;;;;;;35.10;20.08;;;;;;;;;;5048175;28;20029;-75
2023/01/30 10:46:20;;;;;;;29.60;18.15;;;;;;;;;;5044422;28;20044;-75
2023/01/30 10:49:06;;;;;;;31.88;19.13;;;;;;;;;;5045504;28;20368;-75
2023/01/30 10:51:45;;;;;;;30.60;16.35;;;;;;;;;;5053750;28;20063;-75
2023/01/30 10:54:14;;;;;;;37.83;22.50;;;;;;;;;;5049777;28;20056;-75
2023/01/30 10:56:40;;;;;;;32.53;19.90;;;;;;;;;;5043121;28;20040;-75
2023/01/30 10:59:23;;;;;;;32.70;18.70;;;;;;;;;;5045223;28;20041;-75
2023/01/30 11:02:04;;;;;;;33.95;19.80;;;;;;;;;;5048442;28;20037;-75
2023/01/30 11:04:41;;;;;;;37.55;23.60;;;;;;;;;;5043277;28;20037;-73
2023/01/30 11:07:07;;;;;;;38.75;23.40;;;;;;;;;;5044121;28;20032;-74
2023/01/30 11:09:43;;;;;;;36.85;20.17;;;;;;;;;;5043159;28;20041;-73
2023/01/30 11:12:10;;;;;;;32.30;20.20;;;;;;;;;;5037618;28;20467;-73
2023/01/30 11:14:52;;;;;;;37.67;19.30;;;;;;;;;;5041909;28;20029;-74
2023/01/30 11:17:18;;;;;;;;;;;;;;;;;;5040253;28;20044;-73
2023/01/30 11:19:44;;;;;;;32.53;19.25;;;;;;;;;;5035619;28;20431;-73
2023/01/30 11:22:13;;;;;;;38.22;21.13;;;;;;;;;;5044399;28;20052;-73
2023/01/30 11:24:43;;;;;;;36.20;22.52;;;;;;;;;;5039784;28;20458;-73
2023/01/30 11:27:23;;;;;;;36.72;22.17;;;;;;;;;;5039634;28;20044;-73
2023/01/30 11:29:51;;;;;;;36.60;21.58;;;;;;;;;;5043233;28;20029;-73
2023/01/30 11:32:27;;;;;;;32.30;18.95;;;;;;;;;;5049780;28;20037;-73
2023/01/30 11:35:06;;;;;;;33.80;20.08;;;;;;;;;;5048531;28;20125;-73
2023/01/30 11:37:33;;;;;;;37.67;21.23;;;;;;;;;;5050256;28;20841;-73
2023/01/30 11:39:59;;;;;;;35.10;21.23;;;;;;;;;;5045798;28;20037;-74
2023/01/30 11:42:29;;;;;;;35.58;21.77;;;;;;;;;;5053030;28;20041;-74
2023/01/30 11:44:57;;;;;;;39.13;20.70;;;;;;;;;;5051563;28;20033;-74
2023/01/30 11:47:24;;;;;;;31.45;20.00;;;;;;;;;;5043716;28;20056;-73
2023/01/30 11:49:54;;;;;;;35.00;21.17;;;;;;;;;;5056353;28;20522;-73
2023/01/30 11:52:24;;;;;;;33.53;21.00;;;;;;;;;;5051638;28;20466;-73
2023/01/30 11:54:51;;;;;;;33.25;22.52;;;;;;;;;;5045074;28;20087;-73
2023/01/30 11:57:18;;;;;;;36.00;23.02;;;;;;;;;;5055837;28;20024;-73
2023/01/30 11:59:46;;;;;;;27.90;17.98;;;;;;;;;;5048528;28;20127;-74
2023/01/30 12:02:15;;;;;;;37.45;20.63;;;;;;;;;;5051319;28;20037;-74
2023/01/30 12:04:44;;;;;;;37.05;23.38;;;;;;;;;;5046043;28;20036;-74
2023/01/30 12:07:20;;;;;;;40.45;22.92;;;;;;;;;;5043232;28;20037;-74
2023/01/30 12:09:49;;;;;;;30.23;20.02;;;;;;;;;;5048594;28;20040;-74
2023/01/30 12:12:33;;;;;;;28.20;19.33;;;;;;;;;;5045319;28;20112;-74
2023/01/30 12:15:12;;;;;;;34.90;21.45;;;;;;;;;;5046713;28;20640;-74
2023/01/30 12:17:49;;;;;;;31.17;20.90;;;;;;;;;;5050958;28;20033;-74
2023/01/30 12:20:19;;;;;;;32.38;20.98;;;;;;;;;;5043144;28;20051;-74
2023/01/30 12:22:54;;;;;;;33.85;19.52;;;;;;;;;;5047016;28;20049;-74
2023/01/30 12:25:25;;;;;;;34.50;20.95;;;;;;;;;;5045444;28;20033;-74
2023/01/30 12:27:55;;;;;;;36.55;21.30;;;;;;;;;;5054052;28;20044;-74
2023/01/30 12:30:33;;;;;;;34.03;19.08;;;;;;;;;;5048624;28;20040;-74
2023/01/30 12:33:01;;;;;;;30.75;19.95;;;;;;;;;;5042969;28;20033;-74
2023/01/30 12:35:59;;;;;;;34.75;20.98;;;;;;;;;;5048843;28;20082;-74
2023/01/30 12:38:25;;;;;;;32.03;19.55;;;;;;;;;;5018425;28;20053;-74
2023/01/30 12:41:05;;;;;;;34.97;20.55;;;;;;;;;;5044117;28;20029;-74
2023/01/30 12:43:37;;;;;;;33.75;21.92;;;;;;;;;;5054741;28;20762;-74
2023/01/30 12:46:22;;;;;;;31.13;19.02;;;;;;;;;;5046559;28;20033;-74
2023/01/30 12:48:57;;;;;;;31.48;18.15;;;;;;;;;;5051352;28;20661;-74
2023/01/30 12:51:26;;;;;;;30.25;19.40;;;;;;;;;;5043756;28;20033;-74
2023/01/30 12:54:01;;;;;;;30.30;19.58;;;;;;;;;;5038739;28;20060;-73
2023/01/30 12:56:27;;;;;;;32.47;20.15;;;;;;;;;;5040429;28;20033;-73
2023/01/30 12:58:56;;;;;;;27.95;18.38;;;;;;;;;;5043924;28;20418;-74
2023/01/30 13:01:43;;;;;;;24.52;15.07;;;;;;;;;;5042032;28;20033;-74
2023/01/30 13:04:14;;;;;;;29.15;18.05;;;;;;;;;;5035542;28;20028;-74
2023/01/30 13:06:49;;;;;;;27.05;16.63;;;;;;;;;;5042533;28;20037;-74
2023/01/30 13:09:22;;;;;;;35.90;18.00;;;;;;;;;;5042223;28;20705;-74
2023/01/30 13:11:54;;;;;;;27.80;17.20;;;;;;;;;;5036742;28;20147;-74
2023/01/30 13:14:24;;;;;;;29.10;17.73;;;;;;;;;;5037291;28;20032;-74
2023/01/30 13:16:56;;;;;;;26.73;17.10;;;;;;;;;;5043350;28;20057;-74
2023/01/30 13:19:31;;;;;;;28.08;17.75;;;;;;;;;;5041471;28;20034;-74
2023/01/30 13:22:05;;;;;;;33.50;20.58;;;;;;;;;;5041088;28;20083;-74
2023/01/30 13:24:50;;;;;;;26.25;16.33;;;;;;;;;;5038217;28;20092;-74
2023/01/30 13:27:18;;;;;;;27.08;16.83;;;;;;;;;;5041906;28;20039;-74
2023/01/30 13:29:45;;;;;;;23.05;14.60;;;;;;;;;;5036343;28;20044;-74
2023/01/30 13:32:15;;;;;;;23.30;14.57;;;;;;;;;;5041962;28;20173;-74
2023/01/30 13:34:43;;;;;;;21.17;12.80;;;;;;;;;;5035175;28;20494;-73
2023/01/30 13:37:13;;;;;;;26.58;15.38;;;;;;;;;;5037645;28;20515;-74
2023/01/30 13:39:58;;;;;;;27.02;14.50;;;;;;;;;;5039622;28;20137;-73
2023/01/30 13:42:30;;;;;;;28.10;17.48;;;;;;;;;;5044725;28;20037;-73
2023/01/30 13:44:56;;;;;;;24.27;14.75;;;;;;;;;;5039532;28;20033;-73
2023/01/30 13:47:38;;;;;;;25.48;14.52;;;;;;;;;;5038326;28;20041;-74
2023/01/30 13:50:19;;;;;;;25.73;16.88;;;;;;;;;;5038168;28;20032;-74
2023/01/30 13:53:05;;;;;;;24.95;15.85;;;;;;;;;;5034788;28;20505;-74
2023/01/30 13:55:37;;;;;;;24.35;14.60;;;;;;;;;;5019880;28;20736;-73
2023/01/30 13:58:10;;;;;;;28.02;16.67;;;;;;;;;;5034868;28;20032;-74
2023/01/30 14:00:36;;;;;;;;;;;;;;;;;;5047967;28;20859;-74
2023/01/30 14:03:08;;;;;;;35.05;17.67;;;;;;;;;;5036867;28;19916;-74
2023/01/30 14:05:52;;;;;;;30.65;14.25;;;;;;;;;;5038796;28;20063;-74
2023/01/30 14:08:20;;;;;;;28.10;14.30;;;;;;;;;;5038282;28;20037;-74
2023/01/30 14:10:47;;;;;;;27.10;15.75;;;;;;;;;;5040843;28;20119;-74
2023/01/30 14:13:14;;;;;;;32.35;17.65;;;;;;;;;;5041241;28;20043;-74
2023/01/30 14:15:51;;;;;;;38.05;20.55;;;;;;;;;;5038455;28;20039;-74
2023/01/30 14:18:20;;;;;;;39.83;23.70;;;;;;;;;;5037125;28;20052;-74
2023/01/30 14:20:46;;;;;;;42.97;23.65;;;;;;;;;;5042831;28;20486;-74
2023/01/30 14:23:24;;;;;;;39.65;23.70;;;;;;;;;;5039558;28;20056;-74
2023/01/30 14:25:51;;;;;;;37.85;21.55;;;;;;;;;;5038166;28;20033;-73
2023/01/30 14:28:17;;;;;;;41.00;21.23;;;;;;;;;;5035194;28;20037;-74
2023/01/30 14:30:49;;;;;;;31.00;18.10;;;;;;;;;;5038718;28;20040;-74
2023/01/30 14:33:18;;;;;;;39.22;21.77;;;;;;;;;;5041767;28;20033;-74
2023/01/30 14:35:45;;;;;;;35.33;20.15;;;;;;;;;;5037595;28;20036;-74
2023/01/30 14:38:13;;;;;;;34.38;21.02;;;;;;;;;;5042672;28;20037;-74